sensor_id;sensor_type;location;lat;lon;timestamp;P1;durP1;ratioP1;P2;durP2;ratioP2
870;SDS011;422;51.280;7.236;2023-03-14T00:00:23;3.67;;;2.37;;
870;SDS011;422;51.280;7.236;2023-03-14T00:02:51;5.40;;;2.80;;
870;SDS011;422;51.280;7.236;2023-03-14T00:05:20;7.80;;;2.60;;
870;SDS011;422;51.280;7.236;2023-03-14T00:07:47;4.97;;;2.70;;
870;SDS011;422;51.280;7.236;2023-03-14T00:10:14;7.47;;;3.07;;
870;SDS011;422;51.280;7.236;2023-03-14T00:12:42;14.00;;;3.20;;
870;SDS011;422;51.280;7.236;2023-03-14T00:15:10;3.40;;;2.20;;
870;SDS011;422;51.280;7.236;2023-03-14T00:17:37;6.00;;;2.63;;
870;SDS011;422;51.280;7.236;2023-03-14T00:20:06;4.57;;;2.80;;
870;SDS011;422;51.280;7.236;2023-03-14T00:22:36;8.10;;;2.57;;
870;SDS011;422;51.280;7.236;2023-03-14T00:25:04;5.13;;;2.33;;
870;SDS011;422;51.280;7.236;2023-03-14T00:27:32;5.47;;;2.47;;
870;SDS011;422;51.280;7.236;2023-03-14T00:29:59;5.37;;;3.10;;
870;SDS011;422;51.280;7.236;2023-03-14T00:32:26;6.13;;;2.90;;
870;SDS011;422;51.280;7.236;2023-03-14T00:34:53;9.60;;;3.20;;
870;SDS011;422;51.280;7.236;2023-03-14T00:37:20;7.93;;;2.83;;
870;SDS011;422;51.280;7.236;2023-03-14T00:39:50;5.50;;;2.57;;
870;SDS011;422;51.280;7.236;2023-03-14T00:42:17;7.10;;;3.60;;
870;SDS011;422;51.280;7.236;2023-03-14T00:44:45;8.03;;;3.17;;
870;SDS011;422;51.280;7.236;2023-03-14T00:47:12;3.70;;;2.00;;
870;SDS011;422;51.280;7.236;2023-03-14T00:49:39;11.37;;;3.77;;
870;SDS011;422;51.280;7.236;2023-03-14T00:52:08;6.80;;;3.23;;
870;SDS011;422;51.280;7.236;2023-03-14T00:54:35;7.67;;;3.17;;
870;SDS011;422;51.280;7.236;2023-03-14T00:57:04;6.50;;;2.70;;
870;SDS011;422;51.280;7.236;2023-03-14T00:59:31;5.90;;;2.70;;
870;SDS011;422;51.280;7.236;2023-03-14T01:01:58;5.13;;;2.90;;
870;SDS011;422;51.280;7.236;2023-03-14T01:04:25;8.27;;;2.47;;
870;SDS011;422;51.280;7.236;2023-03-14T01:06:52;4.70;;;2.63;;
870;SDS011;422;51.280;7.236;2023-03-14T01:09:20;4.90;;;2.23;;
870;SDS011;422;51.280;7.236;2023-03-14T01:11:47;6.57;;;2.40;;
870;SDS011;422;51.280;7.236;2023-03-14T01:14:15;6.47;;;2.47;;
870;SDS011;422;51.280;7.236;2023-03-14T01:16:42;4.27;;;2.67;;
870;SDS011;422;51.280;7.236;2023-03-14T01:19:09;6.10;;;2.50;;
870;SDS011;422;51.280;7.236;2023-03-14T01:21:36;5.20;;;2.80;;
870;SDS011;422;51.280;7.236;2023-03-14T01:24:04;12.10;;;2.70;;
870;SDS011;422;51.280;7.236;2023-03-14T01:26:33;6.43;;;2.97;;
870;SDS011;422;51.280;7.236;2023-03-14T01:29:01;6.23;;;1.93;;
870;SDS011;422;51.280;7.236;2023-03-14T01:31:30;5.67;;;2.33;;
870;SDS011;422;51.280;7.236;2023-03-14T01:33:57;6.33;;;1.80;;
870;SDS011;422;51.280;7.236;2023-03-14T01:36:24;10.03;;;2.57;;
870;SDS011;422;51.280;7.236;2023-03-14T01:38:51;4.97;;;1.80;;
870;SDS011;422;51.280;7.236;2023-03-14T01:41:19;9.13;;;2.00;;
870;SDS011;422;51.280;7.236;2023-03-14T01:43:48;3.63;;;1.90;;
870;SDS011;422;51.280;7.236;2023-03-14T01:46:26;6.33;;;1.93;;
870;SDS011;422;51.280;7.236;2023-03-14T01:48:59;4.43;;;1.80;;
870;SDS011;422;51.280;7.236;2023-03-14T01:51:39;4.80;;;2.10;;
870;SDS011;422;51.280;7.236;2023-03-14T01:54:12;5.93;;;2.67;;
870;SDS011;422;51.280;7.236;2023-03-14T01:56:44;6.53;;;2.10;;
870;SDS011;422;51.280;7.236;2023-03-14T01:59:14;5.93;;;2.40;;
870;SDS011;422;51.280;7.236;2023-03-14T02:01:43;6.47;;;1.83;;
870;SDS011;422;51.280;7.236;2023-03-14T02:04:12;3.83;;;2.10;;
870;SDS011;422;51.280;7.236;2023-03-14T02:06:43;10.23;;;2.83;;
870;SDS011;422;51.280;7.236;2023-03-14T02:09:17;8.47;;;2.63;;
870;SDS011;422;51.280;7.236;2023-03-14T02:11:45;9.00;;;2.77;;
870;SDS011;422;51.280;7.236;2023-03-14T02:14:14;8.50;;;2.87;;
870;SDS011;422;51.280;7.236;2023-03-14T02:16:52;5.30;;;2.30;;
870;SDS011;422;51.280;7.236;2023-03-14T02:19:21;7.10;;;2.93;;
870;SDS011;422;51.280;7.236;2023-03-14T02:21:59;5.17;;;2.60;;
870;SDS011;422;51.280;7.236;2023-03-14T02:24:32;12.27;;;2.63;;
870;SDS011;422;51.280;7.236;2023-03-14T02:27:12;7.70;;;2.60;;
870;SDS011;422;51.280;7.236;2023-03-14T02:29:44;6.13;;;2.30;;
870;SDS011;422;51.280;7.236;2023-03-14T02:32:15;6.27;;;2.20;;
870;SDS011;422;51.280;7.236;2023-03-14T02:34:44;3.40;;;1.70;;
870;SDS011;422;51.280;7.236;2023-03-14T02:37:14;4.10;;;1.80;;
870;SDS011;422;51.280;7.236;2023-03-14T02:39:44;3.47;;;2.27;;
870;SDS011;422;51.280;7.236;2023-03-14T02:42:15;4.50;;;2.23;;
870;SDS011;422;51.280;7.236;2023-03-14T02:44:50;4.90;;;2.10;;
870;SDS011;422;51.280;7.236;2023-03-14T02:47:20;3.90;;;2.23;;
870;SDS011;422;51.280;7.236;2023-03-14T02:49:53;7.63;;;2.57;;
870;SDS011;422;51.280;7.236;2023-03-14T02:52:27;4.30;;;2.50;;
870;SDS011;422;51.280;7.236;2023-03-14T02:54:54;6.07;;;2.30;;
870;SDS011;422;51.280;7.236;2023-03-14T02:57:22;3.00;;;1.90;;
870;SDS011;422;51.280;7.236;2023-03-14T02:59:49;3.87;;;1.67;;
870;SDS011;422;51.280;7.236;2023-03-14T03:02:16;4.70;;;2.10;;
870;SDS011;422;51.280;7.236;2023-03-14T03:04:44;8.07;;;2.50;;
870;SDS011;422;51.280;7.236;2023-03-14T03:07:11;4.67;;;2.47;;
870;SDS011;422;51.280;7.236;2023-03-14T03:09:38;9.47;;;3.20;;
870;SDS011;422;51.280;7.236;2023-03-14T03:12:05;5.20;;;2.03;;
870;SDS011;422;51.280;7.236;2023-03-14T03:14:33;4.87;;;2.30;;
870;SDS011;422;51.280;7.236;2023-03-14T03:17:02;3.20;;;1.80;;
870;SDS011;422;51.280;7.236;2023-03-14T03:19:29;8.87;;;2.67;;
870;SDS011;422;51.280;7.236;2023-03-14T03:21:57;6.70;;;2.20;;
870;SDS011;422;51.280;7.236;2023-03-14T03:24:24;5.87;;;2.40;;
870;SDS011;422;51.280;7.236;2023-03-14T03:26:51;9.80;;;2.97;;
870;SDS011;422;51.280;7.236;2023-03-14T03:29:19;9.60;;;2.83;;
870;SDS011;422;51.280;7.236;2023-03-14T03:31:47;4.07;;;2.20;;
870;SDS011;422;51.280;7.236;2023-03-14T03:34:14;5.03;;;2.30;;
870;SDS011;422;51.280;7.236;2023-03-14T03:36:41;6.13;;;2.60;;
870;SDS011;422;51.280;7.236;2023-03-14T03:39:08;8.20;;;2.70;;
870;SDS011;422;51.280;7.236;2023-03-14T03:41:35;5.80;;;2.50;;
870;SDS011;422;51.280;7.236;2023-03-14T03:44:03;4.93;;;2.50;;
870;SDS011;422;51.280;7.236;2023-03-14T03:46:30;8.30;;;2.77;;
870;SDS011;422;51.280;7.236;2023-03-14T03:48:59;6.53;;;2.47;;
870;SDS011;422;51.280;7.236;2023-03-14T03:51:26;5.93;;;2.40;;
870;SDS011;422;51.280;7.236;2023-03-14T03:53:54;5.20;;;2.00;;
870;SDS011;422;51.280;7.236;2023-03-14T03:56:23;5.27;;;2.50;;
870;SDS011;422;51.280;7.236;2023-03-14T03:58:50;7.27;;;2.23;;
870;SDS011;422;51.280;7.236;2023-03-14T04:01:17;8.87;;;2.70;;
870;SDS011;422;51.280;7.236;2023-03-14T04:03:44;8.63;;;2.93;;
870;SDS011;422;51.280;7.236;2023-03-14T04:06:12;3.40;;;2.10;;
870;SDS011;422;51.280;7.236;2023-03-14T04:08:40;6.73;;;2.83;;
870;SDS011;422;51.280;7.236;2023-03-14T04:11:08;8.20;;;2.50;;
870;SDS011;422;51.280;7.236;2023-03-14T04:13:35;4.43;;;2.87;;
870;SDS011;422;51.280;7.236;2023-03-14T04:16:02;7.03;;;2.97;;
870;SDS011;422;51.280;7.236;2023-03-14T04:18:30;8.20;;;3.53;;
870;SDS011;422;51.280;7.236;2023-03-14T04:20:57;5.70;;;2.60;;
870;SDS011;422;51.280;7.236;2023-03-14T04:23:25;6.50;;;2.70;;
870;SDS011;422;51.280;7.236;2023-03-14T04:25:52;6.60;;;3.10;;
870;SDS011;422;51.280;7.236;2023-03-14T04:28:19;7.27;;;3.00;;
870;SDS011;422;51.280;7.236;2023-03-14T04:30:46;9.60;;;3.17;;
870;SDS011;422;51.280;7.236;2023-03-14T04:33:14;6.40;;;2.63;;
870;SDS011;422;51.280;7.236;2023-03-14T04:35:42;6.00;;;2.80;;
870;SDS011;422;51.280;7.236;2023-03-14T04:38:09;9.23;;;3.77;;
870;SDS011;422;51.280;7.236;2023-03-14T04:40:38;7.13;;;2.87;;
870;SDS011;422;51.280;7.236;2023-03-14T04:43:05;6.80;;;2.70;;
870;SDS011;422;51.280;7.236;2023-03-14T04:45:33;7.50;;;3.10;;
870;SDS011;422;51.280;7.236;2023-03-14T04:48:00;10.33;;;3.10;;
870;SDS011;422;51.280;7.236;2023-03-14T04:50:28;8.70;;;3.23;;
870;SDS011;422;51.280;7.236;2023-03-14T04:52:55;12.13;;;3.47;;
870;SDS011;422;51.280;7.236;2023-03-14T04:55:22;5.40;;;2.57;;
870;SDS011;422;51.280;7.236;2023-03-14T04:57:50;6.63;;;2.90;;
870;SDS011;422;51.280;7.236;2023-03-14T05:00:17;10.20;;;3.13;;
870;SDS011;422;51.280;7.236;2023-03-14T05:02:45;8.20;;;2.67;;
870;SDS011;422;51.280;7.236;2023-03-14T05:05:12;5.93;;;2.63;;
870;SDS011;422;51.280;7.236;2023-03-14T05:07:39;11.23;;;3.27;;
870;SDS011;422;51.280;7.236;2023-03-14T05:10:06;9.27;;;3.03;;
870;SDS011;422;51.280;7.236;2023-03-14T05:12:33;7.27;;;2.70;;
870;SDS011;422;51.280;7.236;2023-03-14T05:15:02;6.70;;;2.47;;
870;SDS011;422;51.280;7.236;2023-03-14T05:17:30;4.60;;;2.67;;
870;SDS011;422;51.280;7.236;2023-03-14T05:19:58;5.40;;;2.63;;
870;SDS011;422;51.280;7.236;2023-03-14T05:22:25;6.30;;;2.50;;
870;SDS011;422;51.280;7.236;2023-03-14T05:24:52;5.80;;;2.77;;
870;SDS011;422;51.280;7.236;2023-03-14T05:27:21;4.20;;;2.10;;
870;SDS011;422;51.280;7.236;2023-03-14T05:29:49;6.20;;;3.00;;
870;SDS011;422;51.280;7.236;2023-03-14T05:32:17;4.77;;;2.07;;
870;SDS011;422;51.280;7.236;2023-03-14T05:34:44;8.97;;;2.40;;
870;SDS011;422;51.280;7.236;2023-03-14T05:37:11;8.77;;;2.77;;
870;SDS011;422;51.280;7.236;2023-03-14T05:39:38;10.23;;;2.77;;
870;SDS011;422;51.280;7.236;2023-03-14T05:42:05;5.17;;;2.60;;
870;SDS011;422;51.280;7.236;2023-03-14T05:44:32;6.43;;;2.40;;
870;SDS011;422;51.280;7.236;2023-03-14T05:46:59;4.30;;;2.10;;
870;SDS011;422;51.280;7.236;2023-03-14T05:49:27;4.67;;;2.30;;
870;SDS011;422;51.280;7.236;2023-03-14T05:51:54;5.10;;;2.50;;
870;SDS011;422;51.280;7.236;2023-03-14T05:54:21;7.33;;;2.20;;
870;SDS011;422;51.280;7.236;2023-03-14T05:56:48;6.20;;;2.77;;
870;SDS011;422;51.280;7.236;2023-03-14T05:59:15;6.50;;;2.33;;
870;SDS011;422;51.280;7.236;2023-03-14T06:01:42;4.60;;;1.97;;
870;SDS011;422;51.280;7.236;2023-03-14T06:04:09;5.10;;;2.50;;
870;SDS011;422;51.280;7.236;2023-03-14T06:06:38;8.03;;;2.10;;
870;SDS011;422;51.280;7.236;2023-03-14T06:09:05;4.40;;;2.10;;
870;SDS011;422;51.280;7.236;2023-03-14T06:11:32;3.70;;;2.00;;
870;SDS011;422;51.280;7.236;2023-03-14T06:13:59;4.27;;;2.00;;
870;SDS011;422;51.280;7.236;2023-03-14T06:16:26;8.80;;;6.40;;
870;SDS011;422;51.280;7.236;2023-03-14T06:18:53;15.00;;;8.90;;
870;SDS011;422;51.280;7.236;2023-03-14T06:21:20;7.30;;;4.40;;
870;SDS011;422;51.280;7.236;2023-03-14T06:23:49;8.97;;;6.03;;
870;SDS011;422;51.280;7.236;2023-03-14T06:26:16;5.87;;;2.30;;
870;SDS011;422;51.280;7.236;2023-03-14T06:28:43;5.17;;;2.87;;
870;SDS011;422;51.280;7.236;2023-03-14T06:31:10;10.20;;;7.40;;
870;SDS011;422;51.280;7.236;2023-03-14T06:33:37;2.93;;;1.90;;
870;SDS011;422;51.280;7.236;2023-03-14T06:36:05;3.00;;;2.00;;
870;SDS011;422;51.280;7.236;2023-03-14T06:38:33;2.90;;;2.00;;
870;SDS011;422;51.280;7.236;2023-03-14T06:41:04;2.50;;;1.60;;
870;SDS011;422;51.280;7.236;2023-03-14T06:43:31;3.47;;;2.30;;
870;SDS011;422;51.280;7.236;2023-03-14T06:45:59;3.23;;;2.10;;
870;SDS011;422;51.280;7.236;2023-03-14T06:48:26;4.00;;;1.80;;
870;SDS011;422;51.280;7.236;2023-03-14T06:50:53;3.20;;;1.80;;
870;SDS011;422;51.280;7.236;2023-03-14T06:53:20;2.17;;;1.53;;
870;SDS011;422;51.280;7.236;2023-03-14T06:55:47;2.80;;;1.40;;
870;SDS011;422;51.280;7.236;2023-03-14T06:58:16;2.37;;;1.80;;
870;SDS011;422;51.280;7.236;2023-03-14T07:00:43;3.27;;;1.50;;
870;SDS011;422;51.280;7.236;2023-03-14T07:03:10;3.20;;;1.60;;
870;SDS011;422;51.280;7.236;2023-03-14T07:05:39;2.40;;;1.67;;
870;SDS011;422;51.280;7.236;2023-03-14T07:08:07;5.17;;;1.87;;
870;SDS011;422;51.280;7.236;2023-03-14T07:10:34;3.07;;;1.53;;
870;SDS011;422;51.280;7.236;2023-03-14T07:13:02;4.70;;;1.90;;
870;SDS011;422;51.280;7.236;2023-03-14T07:15:30;2.80;;;1.77;;
870;SDS011;422;51.280;7.236;2023-03-14T07:17:57;2.77;;;1.90;;
870;SDS011;422;51.280;7.236;2023-03-14T07:20:24;4.20;;;1.80;;
870;SDS011;422;51.280;7.236;2023-03-14T07:22:51;2.40;;;1.70;;
870;SDS011;422;51.280;7.236;2023-03-14T07:25:19;3.03;;;1.90;;
870;SDS011;422;51.280;7.236;2023-03-14T07:27:46;2.53;;;1.93;;
870;SDS011;422;51.280;7.236;2023-03-14T07:30:13;3.67;;;1.70;;
870;SDS011;422;51.280;7.236;2023-03-14T07:32:42;2.87;;;1.70;;
870;SDS011;422;51.280;7.236;2023-03-14T07:35:09;4.47;;;2.07;;
870;SDS011;422;51.280;7.236;2023-03-14T07:37:36;2.37;;;1.50;;
870;SDS011;422;51.280;7.236;2023-03-14T07:40:03;2.20;;;1.50;;
870;SDS011;422;51.280;7.236;2023-03-14T07:42:32;3.13;;;1.90;;
870;SDS011;422;51.280;7.236;2023-03-14T07:44:59;2.80;;;1.90;;
870;SDS011;422;51.280;7.236;2023-03-14T07:47:26;2.90;;;2.30;;
870;SDS011;422;51.280;7.236;2023-03-14T07:49:54;4.73;;;2.10;;
870;SDS011;422;51.280;7.236;2023-03-14T07:52:21;3.73;;;1.80;;
870;SDS011;422;51.280;7.236;2023-03-14T07:54:49;3.00;;;2.33;;
870;SDS011;422;51.280;7.236;2023-03-14T07:57:16;3.03;;;2.10;;
870;SDS011;422;51.280;7.236;2023-03-14T07:59:43;3.13;;;1.97;;
870;SDS011;422;51.280;7.236;2023-03-14T08:02:10;2.47;;;2.10;;
870;SDS011;422;51.280;7.236;2023-03-14T08:04:38;3.90;;;2.30;;
870;SDS011;422;51.280;7.236;2023-03-14T08:07:07;3.13;;;2.37;;
870;SDS011;422;51.280;7.236;2023-03-14T08:09:34;2.47;;;1.80;;
870;SDS011;422;51.280;7.236;2023-03-14T08:12:01;3.80;;;2.13;;
870;SDS011;422;51.280;7.236;2023-03-14T08:14:28;2.30;;;1.80;;
870;SDS011;422;51.280;7.236;2023-03-14T08:16:56;2.70;;;1.80;;
870;SDS011;422;51.280;7.236;2023-03-14T08:19:24;3.00;;;2.10;;
870;SDS011;422;51.280;7.236;2023-03-14T08:21:51;3.07;;;1.83;;
870;SDS011;422;51.280;7.236;2023-03-14T08:24:19;2.57;;;2.17;;
870;SDS011;422;51.280;7.236;2023-03-14T08:26:46;2.77;;;2.00;;
870;SDS011;422;51.280;7.236;2023-03-14T08:29:13;3.97;;;2.20;;
870;SDS011;422;51.280;7.236;2023-03-14T08:31:40;3.40;;;2.80;;
870;SDS011;422;51.280;7.236;2023-03-14T08:34:07;3.20;;;2.80;;
870;SDS011;422;51.280;7.236;2023-03-14T08:36:34;3.07;;;2.77;;
870;SDS011;422;51.280;7.236;2023-03-14T08:39:01;3.37;;;2.73;;
870;SDS011;422;51.280;7.236;2023-03-14T08:41:33;3.20;;;2.67;;
870;SDS011;422;51.280;7.236;2023-03-14T08:44:05;3.63;;;3.30;;
870;SDS011;422;51.280;7.236;2023-03-14T08:46:32;3.23;;;2.83;;
870;SDS011;422;51.280;7.236;2023-03-14T08:49:00;3.17;;;2.87;;
870;SDS011;422;51.280;7.236;2023-03-14T08:51:27;3.47;;;2.73;;
870;SDS011;422;51.280;7.236;2023-03-14T08:53:54;3.00;;;2.70;;
870;SDS011;422;51.280;7.236;2023-03-14T08:56:22;3.50;;;2.90;;
870;SDS011;422;51.280;7.236;2023-03-14T08:58:50;3.77;;;3.10;;
870;SDS011;422;51.280;7.236;2023-03-14T09:01:17;3.50;;;3.10;;
870;SDS011;422;51.280;7.236;2023-03-14T09:03:45;3.30;;;3.00;;
870;SDS011;422;51.280;7.236;2023-03-14T09:06:13;4.87;;;3.40;;
870;SDS011;422;51.280;7.236;2023-03-14T09:08:43;3.00;;;2.70;;
870;SDS011;422;51.280;7.236;2023-03-14T09:11:10;3.83;;;3.07;;
870;SDS011;422;51.280;7.236;2023-03-14T09:13:37;3.60;;;3.30;;
870;SDS011;422;51.280;7.236;2023-03-14T09:16:06;3.43;;;2.40;;
870;SDS011;422;51.280;7.236;2023-03-14T09:18:34;4.17;;;2.67;;
870;SDS011;422;51.280;7.236;2023-03-14T09:21:01;4.70;;;2.70;;
870;SDS011;422;51.280;7.236;2023-03-14T09:23:28;3.70;;;2.50;;
870;SDS011;422;51.280;7.236;2023-03-14T09:25:55;2.60;;;1.90;;
870;SDS011;422;51.280;7.236;2023-03-14T09:28:23;2.70;;;2.10;;
870;SDS011;422;51.280;7.236;2023-03-14T09:30:50;4.23;;;2.60;;
870;SDS011;422;51.280;7.236;2023-03-14T09:33:18;3.53;;;3.00;;
870;SDS011;422;51.280;7.236;2023-03-14T09:35:45;3.37;;;2.20;;
870;SDS011;422;51.280;7.236;2023-03-14T09:38:12;2.80;;;2.37;;
870;SDS011;422;51.280;7.236;2023-03-14T09:40:40;3.43;;;2.60;;
870;SDS011;422;51.280;7.236;2023-03-14T09:43:08;3.00;;;2.47;;
870;SDS011;422;51.280;7.236;2023-03-14T09:45:39;4.80;;;2.73;;
870;SDS011;422;51.280;7.236;2023-03-14T09:48:10;3.07;;;2.77;;
870;SDS011;422;51.280;7.236;2023-03-14T09:50:43;2.80;;;2.50;;
870;SDS011;422;51.280;7.236;2023-03-14T09:53:14;2.97;;;2.40;;
870;SDS011;422;51.280;7.236;2023-03-14T09:55:44;2.40;;;1.50;;
870;SDS011;422;51.280;7.236;2023-03-14T09:58:14;2.10;;;1.70;;
870;SDS011;422;51.280;7.236;2023-03-14T10:00:44;2.00;;;1.60;;
870;SDS011;422;51.280;7.236;2023-03-14T10:03:20;2.10;;;1.70;;
870;SDS011;422;51.280;7.236;2023-03-14T10:05:53;2.00;;;1.60;;
870;SDS011;422;51.280;7.236;2023-03-14T10:08:22;2.20;;;1.50;;
870;SDS011;422;51.280;7.236;2023-03-14T10:10:49;3.00;;;1.83;;
870;SDS011;422;51.280;7.236;2023-03-14T10:13:17;1.90;;;1.50;;
870;SDS011;422;51.280;7.236;2023-03-14T10:15:47;2.00;;;1.60;;
870;SDS011;422;51.280;7.236;2023-03-14T10:18:17;3.27;;;2.13;;
870;SDS011;422;51.280;7.236;2023-03-14T10:20:45;2.90;;;2.50;;
870;SDS011;422;51.280;7.236;2023-03-14T10:23:29;3.30;;;3.00;;
870;SDS011;422;51.280;7.236;2023-03-14T10:25:59;6.87;;;3.43;;
870;SDS011;422;51.280;7.236;2023-03-14T10:28:37;2.90;;;2.50;;
870;SDS011;422;51.280;7.236;2023-03-14T10:31:06;2.80;;;2.43;;
870;SDS011;422;51.280;7.236;2023-03-14T10:33:34;2.93;;;2.30;;
870;SDS011;422;51.280;7.236;2023-03-14T10:36:03;2.93;;;2.53;;
870;SDS011;422;51.280;7.236;2023-03-14T10:38:35;2.60;;;2.10;;
870;SDS011;422;51.280;7.236;2023-03-14T10:41:05;2.80;;;2.50;;
870;SDS011;422;51.280;7.236;2023-03-14T10:43:42;3.47;;;2.73;;
870;SDS011;422;51.280;7.236;2023-03-14T10:46:12;4.60;;;2.70;;
870;SDS011;422;51.280;7.236;2023-03-14T10:48:42;4.17;;;3.30;;
870;SDS011;422;51.280;7.236;2023-03-14T10:51:11;3.63;;;3.00;;
870;SDS011;422;51.280;7.236;2023-03-14T10:53:47;3.33;;;3.00;;
870;SDS011;422;51.280;7.236;2023-03-14T10:56:17;3.67;;;3.30;;
870;SDS011;422;51.280;7.236;2023-03-14T10:58:46;4.57;;;3.40;;
870;SDS011;422;51.280;7.236;2023-03-14T11:04:05;6.03;;;5.07;;
870;SDS011;422;51.280;7.236;2023-03-14T11:06:41;4.90;;;4.33;;
870;SDS011;422;51.280;7.236;2023-03-14T11:09:14;8.80;;;5.27;;
870;SDS011;422;51.280;7.236;2023-03-14T11:11:47;7.20;;;5.10;;
870;SDS011;422;51.280;7.236;2023-03-14T11:14:17;4.30;;;3.90;;
870;SDS011;422;51.280;7.236;2023-03-14T11:16:52;3.43;;;2.73;;
870;SDS011;422;51.280;7.236;2023-03-14T11:19:28;2.97;;;2.43;;
870;SDS011;422;51.280;7.236;2023-03-14T11:22:05;4.87;;;2.57;;
870;SDS011;422;51.280;7.236;2023-03-14T11:24:48;4.77;;;2.33;;
870;SDS011;422;51.280;7.236;2023-03-14T11:27:28;3.90;;;2.17;;
870;SDS011;422;51.280;7.236;2023-03-14T11:30:00;2.87;;;2.10;;
870;SDS011;422;51.280;7.236;2023-03-14T11:32:36;2.97;;;1.67;;
870;SDS011;422;51.280;7.236;2023-03-14T11:35:14;2.40;;;1.90;;
870;SDS011;422;51.280;7.236;2023-03-14T11:37:47;2.80;;;1.90;;
870;SDS011;422;51.280;7.236;2023-03-14T11:40:21;3.77;;;2.30;;
870;SDS011;422;51.280;7.236;2023-03-14T11:42:50;4.30;;;2.80;;
870;SDS011;422;51.280;7.236;2023-03-14T11:45:25;3.70;;;2.80;;
870;SDS011;422;51.280;7.236;2023-03-14T11:47:59;3.60;;;3.00;;
870;SDS011;422;51.280;7.236;2023-03-14T11:50:40;3.70;;;2.93;;
870;SDS011;422;51.280;7.236;2023-03-14T11:53:11;3.73;;;2.17;;
870;SDS011;422;51.280;7.236;2023-03-14T11:55:43;2.80;;;2.37;;
870;SDS011;422;51.280;7.236;2023-03-14T11:58:13;5.60;;;2.40;;
870;SDS011;422;51.280;7.236;2023-03-14T12:00:45;3.77;;;2.40;;
870;SDS011;422;51.280;7.236;2023-03-14T12:03:17;2.67;;;2.17;;
870;SDS011;422;51.280;7.236;2023-03-14T12:05:55;2.70;;;1.73;;
870;SDS011;422;51.280;7.236;2023-03-14T12:08:32;3.10;;;2.23;;
870;SDS011;422;51.280;7.236;2023-03-14T12:11:08;2.40;;;1.80;;
870;SDS011;422;51.280;7.236;2023-03-14T12:13:39;2.67;;;2.10;;
870;SDS011;422;51.280;7.236;2023-03-14T12:16:17;3.00;;;2.60;;
870;SDS011;422;51.280;7.236;2023-03-14T12:24:53;4.97;;;2.77;;
870;SDS011;422;51.280;7.236;2023-03-14T12:36:00;3.13;;;2.20;;
870;SDS011;422;51.280;7.236;2023-03-14T12:38:39;4.80;;;2.50;;
870;SDS011;422;51.280;7.236;2023-03-14T12:41:15;4.33;;;2.40;;
870;SDS011;422;51.280;7.236;2023-03-14T12:43:46;7.60;;;2.77;;
870;SDS011;422;51.280;7.236;2023-03-14T12:46:21;3.43;;;2.20;;
870;SDS011;422;51.280;7.236;2023-03-14T12:48:53;3.23;;;1.90;;
870;SDS011;422;51.280;7.236;2023-03-14T12:51:28;5.30;;;3.10;;
870;SDS011;422;51.280;7.236;2023-03-14T12:59:52;2.80;;;1.67;;
870;SDS011;422;51.280;7.236;2023-03-14T13:02:23;6.83;;;2.60;;
870;SDS011;422;51.280;7.236;2023-03-14T13:04:52;7.53;;;2.37;;
870;SDS011;422;51.280;7.236;2023-03-14T13:07:31;6.43;;;3.10;;
870;SDS011;422;51.280;7.236;2023-03-14T13:10:22;6.70;;;2.50;;
870;SDS011;422;51.280;7.236;2023-03-14T13:12:53;4.20;;;2.13;;
870;SDS011;422;51.280;7.236;2023-03-14T13:15:27;7.03;;;2.70;;
870;SDS011;422;51.280;7.236;2023-03-14T13:17:59;5.50;;;2.23;;
870;SDS011;422;51.280;7.236;2023-03-14T13:20:30;5.30;;;2.17;;
870;SDS011;422;51.280;7.236;2023-03-14T13:22:59;6.47;;;2.77;;
870;SDS011;422;51.280;7.236;2023-03-14T13:25:30;5.50;;;2.10;;
870;SDS011;422;51.280;7.236;2023-03-14T13:28:00;4.80;;;2.33;;
870;SDS011;422;51.280;7.236;2023-03-14T13:30:35;3.23;;;2.00;;
870;SDS011;422;51.280;7.236;2023-03-14T13:33:05;5.00;;;2.50;;
870;SDS011;422;51.280;7.236;2023-03-14T13:35:38;5.53;;;2.70;;
870;SDS011;422;51.280;7.236;2023-03-14T13:38:16;5.53;;;1.90;;
870;SDS011;422;51.280;7.236;2023-03-14T13:40:45;7.70;;;2.53;;
870;SDS011;422;51.280;7.236;2023-03-14T13:43:17;6.93;;;2.63;;
870;SDS011;422;51.280;7.236;2023-03-14T13:45:49;11.50;;;4.00;;
870;SDS011;422;51.280;7.236;2023-03-14T13:48:18;16.47;;;3.93;;
870;SDS011;422;51.280;7.236;2023-03-14T13:50:53;6.40;;;3.10;;
870;SDS011;422;51.280;7.236;2023-03-14T13:53:22;10.40;;;3.03;;
870;SDS011;422;51.280;7.236;2023-03-14T13:55:50;11.63;;;4.07;;
870;SDS011;422;51.280;7.236;2023-03-14T13:58:21;11.40;;;3.20;;
870;SDS011;422;51.280;7.236;2023-03-14T14:00:55;9.40;;;3.20;;
870;SDS011;422;51.280;7.236;2023-03-14T14:03:29;15.10;;;3.63;;
870;SDS011;422;51.280;7.236;2023-03-14T14:05:59;8.27;;;3.20;;
870;SDS011;422;51.280;7.236;2023-03-14T14:08:26;14.63;;;4.03;;
870;SDS011;422;51.280;7.236;2023-03-14T14:10:55;9.90;;;4.20;;
870;SDS011;422;51.280;7.236;2023-03-14T14:13:25;7.77;;;3.17;;
870;SDS011;422;51.280;7.236;2023-03-14T14:15:57;15.70;;;3.77;;
870;SDS011;422;51.280;7.236;2023-03-14T14:18:26;13.33;;;3.90;;
870;SDS011;422;51.280;7.236;2023-03-14T14:20:55;12.10;;;3.33;;
870;SDS011;422;51.280;7.236;2023-03-14T14:23:24;10.23;;;3.77;;
870;SDS011;422;51.280;7.236;2023-03-14T14:25:54;11.23;;;3.57;;
870;SDS011;422;51.280;7.236;2023-03-14T14:28:24;8.93;;;3.90;;
870;SDS011;422;51.280;7.236;2023-03-14T14:31:04;8.40;;;3.20;;
870;SDS011;422;51.280;7.236;2023-03-14T14:33:43;11.40;;;3.43;;
870;SDS011;422;51.280;7.236;2023-03-14T14:36:15;15.37;;;4.20;;
870;SDS011;422;51.280;7.236;2023-03-14T14:38:51;12.67;;;3.93;;
870;SDS011;422;51.280;7.236;2023-03-14T14:41:20;15.10;;;4.40;;
870;SDS011;422;51.280;7.236;2023-03-14T14:43:47;13.93;;;4.13;;
870;SDS011;422;51.280;7.236;2023-03-14T14:46:19;11.20;;;3.23;;
870;SDS011;422;51.280;7.236;2023-03-14T14:48:46;14.50;;;4.00;;
870;SDS011;422;51.280;7.236;2023-03-14T14:51:24;14.80;;;4.40;;
870;SDS011;422;51.280;7.236;2023-03-14T14:54:03;16.00;;;4.60;;
870;SDS011;422;51.280;7.236;2023-03-14T14:56:37;11.50;;;3.80;;
870;SDS011;422;51.280;7.236;2023-03-14T14:59:05;10.80;;;4.20;;
870;SDS011;422;51.280;7.236;2023-03-14T15:01:36;18.67;;;4.10;;
870;SDS011;422;51.280;7.236;2023-03-14T15:04:04;15.70;;;4.43;;
870;SDS011;422;51.280;7.236;2023-03-14T15:06:38;17.90;;;4.20;;
870;SDS011;422;51.280;7.236;2023-03-14T15:09:08;8.80;;;4.20;;
870;SDS011;422;51.280;7.236;2023-03-14T15:11:36;14.53;;;4.07;;
870;SDS011;422;51.280;7.236;2023-03-14T15:14:03;13.70;;;3.47;;
870;SDS011;422;51.280;7.236;2023-03-14T15:16:31;9.27;;;3.13;;
870;SDS011;422;51.280;7.236;2023-03-14T15:19:00;11.43;;;3.80;;
870;SDS011;422;51.280;7.236;2023-03-14T15:21:30;7.30;;;2.90;;
870;SDS011;422;51.280;7.236;2023-03-14T15:23:58;9.27;;;2.93;;
870;SDS011;422;51.280;7.236;2023-03-14T15:26:25;9.07;;;3.20;;
870;SDS011;422;51.280;7.236;2023-03-14T15:28:54;9.13;;;2.80;;
870;SDS011;422;51.280;7.236;2023-03-14T15:31:21;5.07;;;2.37;;
870;SDS011;422;51.280;7.236;2023-03-14T15:33:48;11.83;;;2.67;;
870;SDS011;422;51.280;7.236;2023-03-14T15:36:27;11.87;;;3.90;;
870;SDS011;422;51.280;7.236;2023-03-14T15:38:55;11.50;;;3.70;;
870;SDS011;422;51.280;7.236;2023-03-14T15:41:23;10.73;;;2.87;;
870;SDS011;422;51.280;7.236;2023-03-14T15:43:51;5.77;;;2.50;;
870;SDS011;422;51.280;7.236;2023-03-14T15:46:19;6.67;;;2.73;;
870;SDS011;422;51.280;7.236;2023-03-14T15:48:47;7.17;;;2.10;;
870;SDS011;422;51.280;7.236;2023-03-14T15:51:14;10.93;;;2.77;;
870;SDS011;422;51.280;7.236;2023-03-14T15:53:43;10.63;;;3.20;;
870;SDS011;422;51.280;7.236;2023-03-14T15:56:11;8.67;;;2.90;;
870;SDS011;422;51.280;7.236;2023-03-14T15:58:39;6.80;;;2.70;;
870;SDS011;422;51.280;7.236;2023-03-14T16:01:07;11.53;;;2.73;;
870;SDS011;422;51.280;7.236;2023-03-14T16:03:35;10.20;;;2.83;;
870;SDS011;422;51.280;7.236;2023-03-14T16:06:02;5.77;;;2.73;;
870;SDS011;422;51.280;7.236;2023-03-14T16:08:29;6.73;;;2.33;;
870;SDS011;422;51.280;7.236;2023-03-14T16:10:58;6.07;;;2.30;;
870;SDS011;422;51.280;7.236;2023-03-14T16:13:26;4.70;;;2.20;;
870;SDS011;422;51.280;7.236;2023-03-14T16:15:54;8.83;;;2.40;;
870;SDS011;422;51.280;7.236;2023-03-14T16:18:22;8.13;;;2.80;;